createdAt,value
2018-02-06T00:02:05.952Z,12.73
2018-02-06T00:04:34.872Z,12.43
2018-02-06T00:07:04.695Z,13.30
2018-02-06T00:09:33.872Z,13.03
2018-02-06T00:12:04.871Z,13.63
2018-02-06T00:14:33.792Z,12.40
2018-02-06T00:17:02.911Z,13.23
2018-02-06T00:19:31.708Z,13.50
2018-02-06T00:22:03.052Z,13.17
2018-02-06T00:24:31.850Z,13.80
2018-02-06T00:27:00.959Z,13.50
2018-02-06T00:29:30.342Z,12.57
2018-02-06T00:31:59.178Z,11.60
2018-02-06T00:34:27.965Z,13.03
2018-02-06T00:36:57.496Z,13.40
2018-02-06T00:39:26.296Z,13.37
2018-02-06T00:41:55.290Z,12.03
2018-02-06T00:44:24.419Z,12.70
2018-02-06T00:46:53.203Z,13.47
2018-02-06T00:49:22.016Z,13.93
2018-02-06T00:51:54.544Z,13.60
2018-02-06T00:54:23.761Z,13.43
2018-02-06T00:56:52.782Z,12.63
2018-02-06T00:59:21.890Z,13.93
2018-02-06T01:01:51.724Z,13.40
2018-02-06T01:04:20.525Z,14.50
2018-02-06T01:06:50.997Z,12.87
2018-02-06T01:09:19.808Z,14.20
2018-02-06T01:11:50.253Z,14.20
2018-02-06T01:14:20.066Z,12.93
2018-02-06T01:16:49.748Z,14.67
2018-02-06T01:19:18.616Z,14.40
2018-02-06T01:21:47.562Z,13.17
2018-02-06T01:24:16.596Z,12.43
2018-02-06T01:26:45.735Z,14.40
2018-02-06T01:29:15.131Z,13.87
2018-02-06T01:31:43.973Z,14.13
2018-02-06T01:34:13.266Z,12.83
2018-02-06T01:36:42.336Z,13.80
2018-02-06T01:39:11.222Z,14.40
2018-02-06T01:41:40.416Z,14.20
2018-02-06T01:44:09.281Z,14.23
2018-02-06T01:46:38.101Z,14.47
2018-02-06T01:49:07.341Z,14.77
2018-02-06T01:51:36.137Z,13.70
2018-02-06T01:54:05.864Z,14.40
2018-02-06T01:56:35.923Z,13.83
2018-02-06T01:59:07.856Z,13.60
2018-02-06T02:01:36.618Z,13.13
2018-02-06T02:04:06.955Z,14.00
2018-02-06T02:06:36.144Z,14.23
2018-02-06T02:09:07.550Z,14.40
2018-02-06T02:11:36.336Z,14.83
2018-02-06T02:14:06.156Z,13.53
2018-02-06T02:16:35.016Z,14.67
2018-02-06T02:19:05.165Z,15.00
2018-02-06T02:21:34.011Z,14.60
2018-02-06T02:24:03.980Z,14.37
2018-02-06T02:26:33.208Z,15.03
2018-02-06T02:29:02.765Z,15.83
2018-02-06T02:31:31.573Z,13.60
2018-02-06T02:34:01.025Z,14.97
2018-02-06T02:36:29.950Z,15.30
2018-02-06T02:38:58.798Z,20.77
2018-02-06T02:41:27.575Z,18.13
2018-02-06T04:41:23.740Z,13.97
2018-02-06T04:43:54.964Z,14.27
2018-02-06T04:46:23.757Z,14.50
2018-02-06T04:48:54.917Z,14.67
2018-02-06T04:51:24.485Z,15.57
2018-02-06T04:53:54.264Z,14.80
2018-02-06T04:56:23.104Z,15.33
2018-02-06T04:58:53.139Z,15.60
2018-02-06T05:01:22.618Z,15.50
2018-02-06T05:03:51.960Z,15.40
2018-02-06T05:06:21.053Z,16.50
2018-02-06T05:08:50.849Z,16.63
2018-02-06T05:11:20.742Z,16.67
2018-02-06T05:13:51.108Z,14.90
2018-02-06T05:16:20.321Z,16.30
2018-02-06T05:18:49.118Z,15.20
2018-02-06T05:21:18.502Z,15.90
2018-02-06T05:23:47.903Z,16.33
2018-02-06T05:26:16.772Z,16.60
2018-02-06T05:28:45.616Z,16.37
2018-02-06T05:31:15.024Z,17.03
2018-02-06T05:33:44.096Z,16.07
2018-02-06T05:36:12.880Z,15.40
2018-02-06T05:38:42.002Z,16.30
2018-02-06T05:41:10.812Z,16.23
2018-02-06T05:43:39.601Z,16.57
2018-02-06T05:46:09.893Z,16.60
2018-02-06T05:48:38.713Z,17.63
2018-02-06T05:51:07.563Z,18.07
2018-02-06T05:53:36.810Z,17.70
2018-02-06T05:56:05.753Z,16.77
2018-02-06T05:58:34.760Z,19.90
2018-02-06T06:01:05.156Z,20.33
2018-02-06T06:03:34.166Z,21.07
2018-02-06T06:06:05.867Z,19.23
2018-02-06T06:08:36.179Z,24.20
2018-02-06T06:11:05.060Z,21.30
2018-02-06T06:13:39.468Z,21.00
2018-02-06T06:16:14.543Z,18.47
2018-02-06T06:18:44.533Z,21.90
2018-02-06T06:21:13.489Z,21.60
2018-02-06T06:23:42.272Z,21.10
2018-02-06T06:26:11.181Z,25.30
2018-02-06T06:28:40.701Z,18.50
2018-02-06T06:31:09.803Z,21.70
2018-02-06T06:33:38.873Z,21.37
2018-02-06T06:36:08.702Z,19.80
2018-02-06T06:38:37.768Z,18.20
2018-02-06T06:41:08.035Z,20.23
2018-02-06T06:43:37.478Z,20.23
2018-02-06T06:46:06.535Z,19.97
2018-02-06T06:48:35.548Z,19.00
2018-02-06T06:51:05.292Z,18.80
2018-02-06T06:53:34.740Z,17.57
2018-02-06T06:56:05.724Z,18.77
2018-02-06T06:58:35.016Z,17.60
2018-02-06T07:01:05.784Z,16.73
2018-02-06T07:03:36.041Z,17.73
2018-02-06T07:06:07.434Z,18.37
2018-02-06T07:08:36.429Z,19.63
2018-02-06T07:11:05.621Z,19.07
2018-02-06T07:13:34.901Z,18.37
2018-02-06T07:16:05.013Z,20.20
2018-02-06T07:18:33.808Z,18.40
2018-02-06T07:21:04.017Z,17.77
2018-02-06T07:23:32.865Z,18.47
2018-02-06T07:26:03.293Z,17.30
2018-02-06T07:28:32.645Z,20.20
2018-02-06T07:31:01.947Z,18.87
2018-02-06T07:33:31.240Z,19.40
2018-02-06T07:36:00.042Z,16.80
2018-02-06T07:38:28.856Z,18.20
2018-02-06T07:40:58.705Z,17.30
2018-02-06T07:43:28.114Z,18.70
2018-02-06T07:49:29.308Z,18.63
2018-02-06T07:51:59.549Z,19.83
2018-02-06T07:54:30.363Z,20.50
2018-02-06T07:56:59.528Z,19.83
2018-02-06T07:59:29.244Z,18.43
2018-02-06T08:01:58.363Z,18.37
2018-02-06T08:04:27.225Z,20.30
2018-02-06T08:06:57.026Z,16.87
2018-02-06T08:09:26.148Z,19.97
2018-02-06T08:11:55.536Z,18.77
2018-02-06T08:14:24.620Z,19.40
2018-02-06T08:16:57.353Z,18.53
2018-02-06T08:19:34.131Z,18.33
2018-02-06T08:22:06.208Z,19.00
2018-02-06T08:24:35.116Z,21.07
2018-02-06T08:27:05.841Z,18.63
2018-02-06T08:29:35.160Z,20.23
2018-02-06T08:32:07.921Z,20.77
2018-02-06T08:34:36.754Z,19.60
2018-02-06T08:37:06.153Z,20.17
2018-02-06T08:39:35.050Z,19.30
2018-02-06T08:42:05.369Z,19.90
2018-02-06T08:44:34.692Z,20.17
2018-02-06T08:47:04.442Z,20.27
2018-02-06T08:49:33.426Z,19.27
2018-02-06T08:52:04.617Z,18.47
2018-02-06T08:54:33.447Z,19.50
2018-02-06T08:57:03.002Z,19.53
2018-02-06T08:59:32.311Z,19.60
2018-02-06T09:02:02.124Z,19.20
2018-02-06T09:04:31.177Z,20.20
2018-02-06T09:07:00.130Z,20.40
2018-02-06T09:09:29.015Z,19.30
2018-02-06T09:11:59.617Z,22.07
2018-02-06T09:14:28.600Z,19.33
2018-02-06T09:16:58.752Z,22.00
2018-02-06T09:19:27.857Z,22.37
2018-02-06T09:21:57.138Z,18.53
2018-02-06T09:24:25.924Z,18.20
2018-02-06T09:26:55.954Z,21.10
2018-02-06T09:29:25.505Z,18.97
2018-02-06T09:31:55.497Z,18.60
2018-02-06T09:34:24.524Z,20.50
2018-02-06T09:36:54.260Z,19.87
2018-02-06T09:39:23.184Z,18.70
2018-02-06T09:41:56.740Z,19.67
2018-02-06T09:44:26.050Z,20.63
2018-02-06T09:46:55.268Z,20.63
2018-02-06T09:49:24.182Z,20.60
2018-02-06T09:51:53.956Z,23.93
2018-02-06T09:54:23.753Z,24.23
2018-02-06T09:56:52.969Z,20.83
2018-02-06T09:59:21.818Z,23.40
2018-02-06T10:01:51.419Z,25.50
2018-02-06T10:04:20.472Z,21.93
2018-02-06T10:06:49.826Z,28.37
2018-02-06T10:09:18.934Z,24.03
2018-02-06T10:11:47.756Z,23.67
2018-02-06T10:14:16.497Z,23.20
2018-02-06T10:16:45.272Z,28.57
2018-02-06T10:19:14.780Z,24.27
2018-02-06T10:21:43.589Z,21.20
2018-02-06T10:24:12.356Z,21.00
2018-02-06T10:26:41.212Z,22.37
2018-02-06T10:29:10.405Z,22.30
2018-02-06T10:31:39.264Z,21.77
2018-02-06T10:34:08.049Z,22.10
2018-02-06T10:36:37.184Z,22.77
2018-02-06T10:39:06.928Z,21.63
2018-02-06T10:41:35.743Z,20.93
2018-02-06T10:44:08.256Z,22.80
2018-02-06T10:46:37.268Z,20.97
2018-02-06T10:49:06.103Z,21.40
2018-02-06T10:51:35.166Z,23.20
2018-02-06T10:54:05.708Z,21.07
2018-02-06T10:56:35.288Z,22.93
2018-02-06T10:59:04.890Z,21.80
2018-02-06T11:04:05.068Z,22.73
2018-02-06T11:06:33.916Z,22.37
2018-02-06T11:09:05.721Z,22.87
2018-02-06T11:11:36.600Z,22.10
2018-02-06T11:14:09.825Z,22.37
2018-02-06T11:16:38.626Z,23.50
2018-02-06T11:19:09.228Z,22.53
2018-02-06T11:21:38.075Z,21.50
2018-02-06T11:24:07.198Z,21.80
2018-02-06T11:26:35.977Z,24.70
2018-02-06T11:29:04.876Z,26.10
2018-02-06T11:31:34.312Z,22.60
2018-02-06T11:34:04.324Z,22.00
2018-02-06T11:36:33.144Z,22.03
2018-02-06T11:39:02.757Z,20.90
2018-02-06T11:41:31.564Z,26.83
2018-02-06T11:44:00.775Z,27.17
2018-02-06T11:46:29.997Z,23.50
2018-02-06T11:48:59.826Z,23.60
2018-02-06T11:51:28.672Z,23.90
2018-02-06T11:53:58.064Z,22.10
2018-02-06T11:56:26.820Z,23.40
2018-02-06T11:58:56.450Z,24.10
2018-02-06T12:01:25.680Z,26.90
2018-02-06T12:03:55.041Z,24.60
2018-02-06T12:06:23.932Z,23.03
2018-02-06T12:08:54.481Z,26.73
2018-02-06T12:11:23.365Z,24.13
2018-02-06T12:13:52.604Z,23.40
2018-02-06T12:16:22.693Z,23.40
2018-02-06T12:18:52.250Z,25.07
2018-02-06T12:21:21.058Z,25.87
2018-02-06T12:23:51.279Z,22.60
2018-02-06T12:26:20.193Z,25.93
2018-02-06T12:28:48.988Z,22.60
2018-02-06T12:31:18.054Z,25.10
2018-02-06T12:33:46.967Z,24.53
2018-02-06T12:36:16.043Z,25.23
2018-02-06T12:38:45.157Z,25.87
2018-02-06T12:41:13.924Z,24.87
2018-02-06T12:43:42.844Z,25.53
2018-02-06T12:46:11.889Z,23.10
2018-02-06T12:48:40.700Z,24.20
2018-02-06T12:51:09.688Z,25.03
2018-02-06T12:53:38.811Z,23.60
2018-02-06T12:56:07.637Z,26.73
2018-02-06T12:58:36.434Z,23.63
2018-02-06T13:01:06.868Z,23.23
2018-02-06T13:03:36.296Z,26.00
2018-02-06T13:06:07.027Z,23.77
2018-02-06T13:08:35.980Z,27.00
2018-02-06T13:11:05.195Z,25.33
2018-02-06T13:13:34.291Z,26.50
2018-02-06T13:16:04.346Z,27.87
2018-02-06T13:18:33.213Z,29.03
2018-02-06T13:21:02.863Z,31.90
2018-02-06T13:23:31.669Z,26.13
2018-02-06T13:26:02.981Z,25.73
2018-02-06T13:28:32.101Z,23.97
2018-02-06T13:31:01.100Z,23.33
2018-02-06T13:33:29.920Z,25.30
2018-02-06T13:35:59.765Z,25.47
2018-02-06T13:38:28.580Z,23.30
2018-02-06T13:40:57.917Z,22.63
2018-02-06T13:43:27.004Z,25.67
2018-02-06T13:45:57.480Z,25.83
2018-02-06T13:48:26.330Z,24.40
2018-02-06T13:50:56.858Z,24.37
2018-02-06T13:53:25.729Z,24.87
2018-02-06T13:55:55.261Z,23.17
2018-02-06T13:58:24.103Z,25.83
2018-02-06T14:00:54.397Z,24.50
2018-02-06T14:03:23.678Z,24.57
2018-02-06T14:05:53.663Z,26.80
2018-02-06T14:08:22.525Z,26.23
2018-02-06T14:10:52.685Z,25.23
2018-02-06T14:13:21.489Z,25.50
2018-02-06T14:15:50.322Z,26.07
2018-02-06T14:18:19.517Z,26.87
2018-02-06T14:20:48.316Z,25.30
2018-02-06T14:23:17.125Z,24.10
2018-02-06T14:25:46.261Z,25.97
2018-02-06T14:28:15.052Z,26.00
2018-02-06T14:30:44.154Z,25.13
2018-02-06T14:33:12.923Z,24.93
2018-02-06T14:35:41.745Z,25.00
2018-02-06T14:38:15.292Z,27.07
2018-02-06T14:40:44.098Z,24.93
2018-02-06T14:43:12.875Z,25.40
2018-02-06T14:45:42.108Z,24.33
2018-02-06T14:48:11.817Z,25.13
2018-02-06T14:50:40.628Z,25.53
2018-02-06T14:53:10.102Z,23.80
2018-02-06T14:55:38.912Z,26.73
2018-02-06T14:58:07.712Z,25.70
2018-02-06T15:00:37.933Z,26.43
2018-02-06T15:03:06.755Z,24.57
2018-02-06T15:05:35.546Z,27.23
2018-02-06T15:08:05.725Z,26.00
2018-02-06T15:10:34.477Z,26.40
2018-02-06T15:13:03.954Z,25.90
2018-02-06T15:15:32.724Z,26.43
2018-02-06T15:18:04.640Z,26.30
2018-02-06T15:20:33.721Z,25.40
2018-02-06T15:23:03.437Z,25.47
2018-02-06T15:25:32.244Z,26.80
2018-02-06T15:28:03.296Z,27.13
2018-02-06T15:30:32.050Z,25.33
2018-02-06T15:33:01.317Z,25.83
2018-02-06T15:35:30.403Z,25.03
2018-02-06T15:37:59.345Z,26.70
2018-02-06T15:40:28.242Z,26.90
2018-02-06T15:42:58.600Z,25.43
2018-02-06T15:45:27.469Z,25.90
2018-02-06T15:47:56.668Z,25.10
2018-02-06T15:50:26.757Z,25.80
2018-02-06T15:52:56.300Z,26.43
2018-02-06T15:55:25.172Z,29.60
2018-02-06T15:57:55.778Z,27.30
2018-02-06T16:00:24.712Z,26.40
2018-02-06T16:02:54.410Z,27.03
2018-02-06T16:05:23.186Z,26.17
2018-02-06T16:07:52.616Z,28.37
2018-02-06T16:10:21.716Z,26.30
2018-02-06T16:12:50.544Z,25.93
2018-02-06T16:15:19.317Z,27.07
2018-02-06T16:17:48.394Z,27.00
2018-02-06T16:20:17.289Z,27.80
2018-02-06T16:22:46.060Z,30.80
2018-02-06T16:25:14.852Z,28.00
2018-02-06T16:27:43.817Z,29.37
2018-02-06T16:30:12.707Z,27.87
2018-02-06T16:32:43.901Z,26.00
2018-02-06T16:35:12.673Z,29.20
2018-02-06T16:37:41.496Z,25.60
2018-02-06T16:40:10.249Z,27.40
2018-02-06T16:42:39.123Z,27.73
2018-02-06T16:45:08.300Z,26.73
2018-02-06T16:47:37.085Z,26.17
2018-02-06T16:50:06.617Z,25.80
2018-02-06T16:52:35.681Z,29.50
2018-02-06T16:55:04.833Z,28.97
2018-02-06T16:57:33.616Z,27.80
2018-02-06T17:00:05.404Z,27.80
2018-02-06T17:02:42.856Z,27.43
2018-02-06T17:05:11.966Z,27.13
2018-02-06T17:07:40.864Z,25.73
2018-02-06T17:10:09.696Z,26.40
2018-02-06T17:12:38.765Z,24.80
2018-02-06T17:15:08.125Z,27.07
2018-02-06T17:17:37.032Z,26.23
2018-02-06T17:20:06.880Z,27.03
2018-02-06T17:22:35.668Z,27.40
2018-02-06T17:25:05.188Z,27.90
2018-02-06T17:27:34.479Z,26.93
2018-02-06T17:30:06.289Z,26.27
2018-02-06T17:32:35.094Z,26.10
2018-02-06T17:35:04.755Z,27.00
2018-02-06T17:37:33.512Z,27.97
2018-02-06T17:40:05.329Z,25.97
2018-02-06T17:42:34.421Z,28.47
2018-02-06T17:45:04.177Z,26.10
2018-02-06T17:47:33.122Z,30.00
2018-02-06T17:50:03.477Z,26.33
2018-02-06T17:52:32.268Z,26.77
2018-02-06T17:55:02.666Z,28.13
2018-02-06T17:57:31.046Z,26.23
2018-02-06T18:00:02.646Z,26.90
2018-02-06T18:02:34.077Z,27.63
2018-02-06T18:05:05.144Z,28.53
2018-02-06T18:07:34.056Z,26.10
2018-02-06T18:10:05.646Z,29.00
2018-02-06T18:12:34.552Z,27.30
2018-02-06T18:15:05.099Z,26.83
2018-02-06T18:17:34.173Z,25.53
2018-02-06T18:20:04.145Z,26.40
2018-02-06T18:22:32.912Z,27.43
2018-02-06T18:25:02.557Z,27.00
2018-02-06T18:27:31.364Z,28.97
2018-02-06T18:30:00.297Z,33.00
2018-02-06T18:32:29.109Z,35.00
2018-02-06T18:34:59.154Z,31.57
2018-02-06T18:37:28.261Z,30.70
2018-02-06T18:39:57.201Z,28.07
2018-02-06T18:42:26.037Z,29.50
2018-02-06T18:44:58.696Z,27.83
2018-02-06T18:47:27.665Z,27.97
2018-02-06T18:49:56.657Z,30.30
2018-02-06T18:52:25.834Z,30.63
2018-02-06T18:54:55.512Z,31.63
2018-02-06T18:57:24.439Z,28.83
2018-02-06T18:59:54.615Z,28.77
2018-02-06T19:02:23.510Z,29.57
2018-02-06T19:04:53.759Z,29.70
2018-02-06T19:07:22.800Z,28.93
2018-02-06T19:09:52.323Z,30.40
2018-02-06T19:12:21.115Z,33.00
2018-02-06T19:14:49.968Z,31.70
2018-02-06T19:17:18.914Z,30.60
2018-02-06T19:19:49.980Z,28.13
2018-02-06T19:22:18.824Z,34.30
2018-02-06T19:24:47.650Z,34.20
2018-02-06T19:27:16.510Z,27.77
2018-02-06T19:29:45.320Z,31.33
2018-02-06T19:32:14.229Z,27.93
2018-02-06T19:34:44.465Z,26.70
2018-02-06T19:37:13.255Z,28.50
2018-02-06T19:39:42.386Z,27.00
2018-02-06T19:42:11.746Z,27.03
2018-02-06T19:44:40.672Z,28.37
2018-02-06T19:47:10.358Z,27.00
2018-02-06T19:49:39.736Z,27.60
2018-02-06T19:52:09.581Z,27.97
2018-02-06T19:54:38.432Z,28.97
2018-02-06T19:57:07.228Z,28.63
2018-02-06T19:59:36.064Z,26.87
2018-02-06T20:02:06.093Z,28.37
2018-02-06T20:04:34.937Z,29.20
2018-02-06T20:07:05.040Z,29.37
2018-02-06T20:09:34.411Z,27.43
2018-02-06T20:12:04.867Z,29.17
2018-02-06T20:14:33.652Z,30.33
2018-02-06T20:17:03.941Z,28.67
2018-02-06T20:19:32.775Z,28.90
2018-02-06T20:22:04.725Z,30.10
2018-02-06T20:24:33.715Z,31.63
2018-02-06T20:27:04.562Z,30.60
2018-02-06T20:29:34.347Z,31.03
2018-02-06T20:32:04.931Z,31.27
2018-02-06T20:34:33.724Z,31.17
2018-02-06T20:37:04.108Z,29.33
2018-02-06T20:39:32.973Z,30.97
2018-02-06T20:42:03.365Z,31.27
2018-02-06T20:44:32.668Z,31.33
2018-02-06T20:47:02.444Z,31.20
2018-02-06T20:49:31.289Z,30.67
2018-02-06T20:52:02.905Z,29.60
2018-02-06T20:54:31.852Z,29.20
2018-02-06T20:57:01.421Z,29.90
2018-02-06T20:59:30.921Z,29.97
2018-02-06T21:02:00.492Z,28.20
2018-02-06T21:04:29.284Z,28.37
2018-02-06T21:06:58.424Z,29.77
2018-02-06T21:09:27.260Z,28.40
2018-02-06T21:11:58.475Z,29.10
2018-02-06T21:14:27.255Z,30.00
2018-02-06T21:16:58.389Z,28.53
2018-02-06T21:19:29.376Z,29.17
2018-02-06T21:22:00.141Z,30.37
2018-02-06T21:24:29.204Z,28.43
2018-02-06T21:26:58.886Z,30.33
2018-02-06T21:29:27.979Z,28.80
2018-02-06T21:31:57.000Z,30.33
2018-02-06T21:34:27.202Z,27.20
2018-02-06T21:36:56.481Z,29.00
2018-02-06T21:39:25.407Z,29.23
2018-02-06T21:41:57.225Z,28.57
2018-02-06T21:44:26.341Z,29.10
2018-02-06T21:46:58.192Z,28.10
2018-02-06T21:49:27.140Z,28.60
2018-02-06T21:51:58.608Z,27.93
2018-02-06T21:54:27.948Z,28.80
2018-02-06T21:56:57.004Z,30.70
2018-02-06T21:59:25.896Z,27.57
2018-02-06T22:01:56.829Z,27.47
2018-02-06T22:04:25.728Z,26.43
2018-02-06T22:06:55.193Z,29.83
2018-02-06T22:09:24.292Z,26.40
2018-02-06T22:11:53.653Z,28.10
2018-02-06T22:14:22.461Z,29.27
2018-02-06T22:16:51.680Z,29.43
2018-02-06T22:19:20.496Z,28.03
2018-02-06T22:21:49.344Z,29.60
2018-02-06T22:24:18.161Z,28.40
2018-02-06T22:26:46.989Z,27.30
2018-02-06T22:29:15.992Z,30.07
2018-02-06T22:31:45.085Z,29.03
2018-02-06T22:34:14.204Z,29.53
2018-02-06T22:36:43.893Z,31.70
2018-02-06T22:39:12.968Z,31.80
2018-02-06T22:41:42.079Z,29.57
2018-02-06T22:44:11.407Z,30.40
2018-02-06T22:46:40.259Z,32.07
2018-02-06T22:49:09.858Z,33.17
2018-02-06T22:51:38.782Z,32.80
2018-02-06T22:54:07.671Z,32.23
2018-02-06T22:56:36.487Z,33.93
2018-02-06T22:59:07.253Z,32.20
2018-02-06T23:01:36.085Z,32.33
2018-02-06T23:04:06.095Z,33.00
2018-02-06T23:06:35.144Z,32.90
2018-02-06T23:09:05.318Z,32.97
2018-02-06T23:11:34.475Z,31.93
2018-02-06T23:14:04.595Z,32.43
2018-02-06T23:16:33.531Z,31.67
2018-02-06T23:19:05.610Z,31.47
2018-02-06T23:21:34.934Z,30.37
2018-02-06T23:24:05.546Z,28.80
2018-02-06T23:26:34.690Z,26.97
2018-02-06T23:29:05.216Z,29.07
2018-02-06T23:31:33.963Z,29.10
2018-02-06T23:34:04.060Z,28.90
2018-02-06T23:36:32.841Z,29.67
2018-02-06T23:39:02.399Z,27.10
2018-02-06T23:41:32.017Z,28.80
2018-02-06T23:44:04.189Z,29.50
2018-02-06T23:46:34.198Z,29.20
2018-02-06T23:49:03.610Z,28.33
2018-02-06T23:51:32.497Z,28.23
2018-02-06T23:54:04.897Z,28.70
2018-02-06T23:56:33.912Z,30.40
2018-02-06T23:59:03.418Z,28.77
